Latest Weather Observations for Kurnell

IDN60801

Issued at 8:35 pm EST Thursday 24 April 2014 (issued every 30 minutes, with the page automatically refreshed every 10 minutes)

About weather observations | Map of weather stations | Latest weather observations for NSW | Other Formats
Station Details ID: 066043 Name: KURNELL AWS Lat: -34.00 Lon: 151.21 Height: 4.0 m
Data from the previous 72 hours. | See also: Recent months for locations in New South Wales
Date/Time
EST
Temp
°C
App
Temp
°C
Dew
Point
Rel
Hum
%
Delta-T
°C
Wind Press
QNH
hPa
Press
MSL
hPa
Rain
since 9 am
mm
Dir
 
Spd
km/h
Gust
km/h
Spd
kts
Gust
kts
24/08:30pm - - - - - S 19 26 10 14 - - -
24/08:00pm - - - - - S 9 15 5 8 - - -
24/07:30pm - - - - - S 9 11 5 6 - - -
24/07:00pm - - - - - SW 11 13 6 7 - - -
24/06:30pm - - - - - S 2 7 1 4 - - -
24/06:00pm - - - - - S 6 11 3 6 - - -
24/05:30pm - - - - - E 13 17 7 9 - - -
24/05:00pm - - - - - E 15 19 8 10 - - -
24/04:30pm - - - - - ESE 19 24 10 13 - - -
24/04:00pm - - - - - WNW 17 20 9 11 - - -
24/03:30pm - - - - - NW 19 24 10 13 - - -
24/03:00pm - - - - - NW 20 24 11 13 - - -
24/02:30pm - - - - - WNW 11 13 6 7 - - -
24/02:00pm - - - - - NNW 11 13 6 7 - - -
24/01:30pm - - - - - NW 9 11 5 6 - - -
24/01:00pm - - - - - WSW 7 11 4 6 - - -
24/12:30pm - - - - - SW 6 7 3 4 - - -
24/12:00pm - - - - - NW 13 15 7 8 - - -
24/11:30am - - - - - WNW 17 17 9 9 - - -
24/11:00am - - - - - NW 13 15 7 8 - - -
24/10:30am - - - - - NNW 15 17 8 9 - - -
24/10:00am - - - - - NW 19 20 10 11 - - -
24/09:30am - - - - - NW 20 24 11 13 - - -
24/09:00am - - - - - NW 20 24 11 13 - - -
24/08:30am - - - - - NNW 20 26 11 14 - - -
24/08:00am - - - - - NW 20 26 11 14 - - -
24/07:30am - - - - - NNW 19 22 10 12 - - -
24/07:00am - - - - - NW 22 26 12 14 - - -
24/06:30am - - - - - NW 24 30 13 16 - - -
24/06:00am - - - - - NW 20 22 11 12 - - -
24/05:30am - - - - - N 17 20 9 11 - - -
24/05:00am - - - - - NNW 19 22 10 12 - - -
24/04:30am - - - - - NNW 17 19 9 10 - - -
24/04:00am - - - - - WNW 19 20 10 11 - - -
24/03:30am - - - - - NNW 17 20 9 11 - - -
24/03:00am - - - - - NW 19 22 10 12 - - -
24/02:30am - - - - - WNW 15 17 8 9 - - -
24/02:00am - - - - - WNW 15 17 8 9 - - -
24/01:30am - - - - - WNW 15 17 8 9 - - -
24/01:00am - - - - - NW 15 17 8 9 - - -
24/12:30am - - - - - NW 15 17 8 9 - - -
24/12:00am - - - - - NNW 15 19 8 10 - - -
 
Date/Time
EST
Temp
°C
App
Temp
°C
Dew
Point
Rel
Hum
%
Delta-T
°C
Wind Press
QNH
hPa
Press
MSL
hPa
Rain
since 9 am
mm
Dir
 
Spd
km/h
Gust
km/h
Spd
kts
Gust
kts
23/11:30pm - - - - - NW 15 17 8 9 - - -
23/11:00pm - - - - - WNW 11 13 6 7 - - -
23/10:30pm - - - - - N 13 15 7 8 - - -
23/10:00pm - - - - - N 11 13 6 7 - - -
23/09:30pm - - - - - CALM 0 4 0 2 - - -
23/09:00pm - - - - - N 7 9 4 5 - - -
23/08:30pm - - - - - N 9 11 5 6 - - -
23/08:00pm - - - - - NNW 9 11 5 6 - - -
23/07:30pm - - - - - NNE 7 9 4 5 - - -
23/07:00pm - - - - - NNE 7 9 4 5 - - -
23/06:30pm - - - - - NNE 9 13 5 7 - - -
23/06:00pm - - - - - NE 13 15 7 8 - - -
23/05:30pm - - - - - ENE 11 15 6 8 - - -
23/05:00pm - - - - - ENE 13 17 7 9 - - -
23/04:30pm - - - - - ENE 15 17 8 9 - - -
23/04:00pm - - - - - E 15 17 8 9 - - -
23/03:30pm - - - - - E 13 15 7 8 - - -
23/03:00pm - - - - - ESE 11 13 6 7 - - -
23/02:30pm - - - - - E 11 13 6 7 - - -
23/02:00pm - - - - - SE 13 17 7 9 - - -
23/01:30pm - - - - - E 9 13 5 7 - - -
23/01:00pm - - - - - CALM 0 0 0 0 - - -
23/12:30pm - - - - - N 6 7 3 4 - - -
23/12:00pm - - - - - NNW 4 7 2 4 - - -
23/11:30am - - - - - WNW 9 15 5 8 - - -
23/11:00am - - - - - W 13 15 7 8 - - -
23/10:30am - - - - - NW 15 19 8 10 - - -
23/10:00am - - - - - NNW 17 20 9 11 - - -
23/09:30am - - - - - NW 17 19 9 10 - - -
23/09:00am - - - - - WNW 19 24 10 13 - - -
23/08:30am - - - - - NNW 17 19 9 10 - - -
23/08:00am - - - - - NNW 15 19 8 10 - - -
23/07:30am - - - - - NNW 15 22 8 12 - - -
23/07:00am - - - - - NNW 17 20 9 11 - - -
23/06:30am - - - - - NW 17 19 9 10 - - -
23/06:00am - - - - - NNW 17 19 9 10 - - -
23/05:30am - - - - - NNW 15 19 8 10 - - -
23/05:00am - - - - - NNW 13 17 7 9 - - -
23/04:30am - - - - - NW 15 19 8 10 - - -
23/04:00am - - - - - NNW 13 17 7 9 - - -
23/03:30am - - - - - NNW 13 17 7 9 - - -
23/03:00am - - - - - WNW 15 19 8 10 - - -
23/02:30am - - - - - WNW 13 17 7 9 - - -
23/02:00am - - - - - NW 11 13 6 7 - - -
23/01:30am - - - - - WNW 9 13 5 7 - - -
23/01:00am - - - - - WNW 11 13 6 7 - - -
23/12:30am - - - - - W 15 15 8 8 - - -
23/12:00am - - - - - W 13 15 7 8 - - -
 
Date/Time
EST
Temp
°C
App
Temp
°C
Dew
Point
Rel
Hum
%
Delta-T
°C
Wind Press
QNH
hPa
Press
MSL
hPa
Rain
since 9 am
mm
Dir
 
Spd
km/h
Gust
km/h
Spd
kts
Gust
kts
22/11:30pm - - - - - W 11 13 6 7 - - -
22/11:00pm - - - - - WNW 11 13 6 7 - - -
22/10:30pm - - - - - W 13 15 7 8 - - -
22/10:00pm - - - - - NW 13 15 7 8 - - -
22/09:30pm - - - - - WNW 11 13 6 7 - - -
22/09:00pm - - - - - W 11 13 6 7 - - -
22/08:30pm - - - - - NNW 17 22 9 12 - - -
22/08:00pm - - - - - NNW 13 17 7 9 - - -
22/07:30pm - - - - - NNW 13 15 7 8 - - -
22/07:00pm - - - - - NNW 15 20 8 11 - - -
22/06:30pm - - - - - NNW 19 22 10 12 - - -
22/06:00pm - - - - - NNW 17 19 9 10 - - -
22/05:30pm - - - - - NNW 15 19 8 10 - - -
22/05:00pm - - - - - NW 17 19 9 10 - - -
22/04:30pm - - - - - NNW 15 17 8 9 - - -
22/04:00pm - - - - - NNW 13 15 7 8 - - -
22/03:30pm - - - - - N 7 9 4 5 - - -
22/03:00pm - - - - - N 2 7 1 4 - - -
22/02:30pm - - - - - NNW 9 13 5 7 - - -
22/02:00pm - - - - - NNW 15 17 8 9 - - -
22/01:30pm - - - - - NNW 9 11 5 6 - - -
22/01:00pm - - - - - NNW 11 13 6 7 - - -
22/12:30pm - - - - - NNW 19 20 10 11 - - -
22/12:00pm - - - - - NNW 19 22 10 12 - - -
22/11:30am - - - - - NW 17 20 9 11 - - -
22/11:00am - - - - - NW 11 13 6 7 - - -
22/10:30am - - - - - NW 13 15 7 8 - - -
22/10:00am - - - - - NW 17 20 9 11 - - -
22/09:30am - - - - - NW 19 24 10 13 - - -
22/09:00am - - - - - NW 19 22 10 12 - - -
22/08:30am - - - - - NW 17 20 9 11 - - -
22/08:00am - - - - - NNW 17 19 9 10 - - -
22/07:30am - - - - - NNW 15 20 8 11 - - -
22/07:00am - - - - - NW 17 20 9 11 - - -
22/06:30am - - - - - NW 19 20 10 11 - - -
22/06:00am - - - - - NW 19 20 10 11 - - -
22/05:30am - - - - - NW 17 20 9 11 - - -
22/05:00am - - - - - NW 17 19 9 10 - - -
22/04:30am - - - - - NW 20 24 11 13 - - -
22/04:00am - - - - - NNW 19 24 10 13 - - -
22/03:30am - - - - - NW 17 19 9 10 - - -
22/03:00am - - - - - NW 17 19 9 10 - - -
22/02:30am - - - - - NW 17 22 9 12 - - -
22/02:00am - - - - - NW 17 20 9 11 - - -
22/01:30am - - - - - N 13 15 7 8 - - -
22/01:00am - - - - - NNW 13 15 7 8 - - -
22/12:30am - - - - - NNW 13 15 7 8 - - -
22/12:00am - - - - - NNW 11 15 6 8 - - -
 
Date/Time
EST
Temp
°C
App
Temp
°C
Dew
Point
Rel
Hum
%
Delta-T
°C
Wind Press
QNH
hPa
Press
MSL
hPa
Rain
since 9 am
mm
Dir
 
Spd
km/h
Gust
km/h
Spd
kts
Gust
kts
21/11:30pm - - - - - NW 13 15 7 8 - - -
21/11:00pm - - - - - W 9 11 5 6 - - -
21/10:30pm - - - - - W 7 9 4 5 - - -
21/10:00pm - - - - - W 9 11 5 6 - - -
21/09:30pm - - - - - W 13 15 7 8 - - -
21/09:00pm - - - - - W 11 13 6 7 - - -

Other Formats:

Comma delimited format used in spreadsheet applications
http://www.bom.gov.au/fwo/IDN60801/IDN60801.95756.axf

JavaScript Object Notation format (JSON) in row-major order
http://www.bom.gov.au/fwo/IDN60801/IDN60801.95756.json